Time;durP1;ratioP1;P1;durP2;ratioP2;P2;SDS_P1;SDS_P2;PMS_P1;PMS_P2;Temp;Humidity;BMP_temperature;BMP_pressure;BME280_temperature;BME280_humidity;BME280_pressure;Samples;Min_cycle;Max_cycle;Signal;HPM_P1;HPM_P2
2023/09/01 00:00:49;;;;;;;8.52;1.70;;;10.80;99.90;;;;;;5127251;27;20050;-59
2023/09/01 00:03:16;;;;;;;2.17;1.75;;;10.90;99.90;;;;;;5130043;27;20071;-58
2023/09/01 00:05:42;;;;;;;4.55;1.95;;;10.90;99.90;;;;;;5127549;27;20039;-58
2023/09/01 00:08:11;;;;;;;3.55;1.25;;;10.90;99.90;;;;;;5110346;27;20389;-57
2023/09/01 00:10:39;;;;;;;3.65;2.38;;;10.90;99.90;;;;;;5129273;27;20058;-58
2023/09/01 00:13:05;;;;;;;2.97;2.08;;;11.00;99.90;;;;;;5126241;27;20055;-58
2023/09/01 00:15:31;;;;;;;3.97;1.55;;;11.00;99.90;;;;;;5130164;27;20847;-58
2023/09/01 00:17:57;;;;;;;4.80;1.55;;;10.90;99.90;;;;;;5107809;27;20145;-58
2023/09/01 00:20:23;;;;;;;4.13;1.60;;;10.90;99.90;;;;;;5130701;27;20047;-59
2023/09/01 00:22:49;;;;;;;4.43;2.30;;;11.00;99.90;;;;;;5127184;27;20059;-58
2023/09/01 00:25:15;;;;;;;1.92;1.23;;;10.90;99.90;;;;;;5126962;27;20127;-56
2023/09/01 00:27:41;;;;;;;2.08;1.10;;;10.90;99.90;;;;;;5130574;27;20074;-59
2023/09/01 00:30:11;;;;;;;2.47;1.25;;;10.90;99.90;;;;;;5125537;27;20143;-58
2023/09/01 00:32:36;;;;;;;2.35;1.35;;;10.90;99.90;;;;;;5128767;27;20086;-58
2023/09/01 00:35:03;;;;;;;2.83;2.03;;;10.90;99.90;;;;;;5108103;27;20138;-58
2023/09/01 00:37:29;;;;;;;4.65;2.30;;;10.90;99.90;;;;;;5121034;27;20066;-58
2023/09/01 00:39:55;;;;;;;4.97;2.63;;;10.80;99.90;;;;;;5128833;27;20051;-58
2023/09/01 00:42:20;;;;;;;4.32;2.08;;;10.80;99.90;;;;;;5124893;27;20051;-58
2023/09/01 00:44:46;;;;;;;3.83;2.30;;;10.70;99.90;;;;;;5132397;27;20046;-58
2023/09/01 00:47:13;;;;;;;1.88;1.48;;;10.80;99.90;;;;;;5126609;27;20412;-57
2023/09/01 00:49:40;;;;;;;2.42;1.90;;;10.70;99.90;;;;;;5129886;27;20057;-59
2023/09/01 00:54:36;;;;;;;3.33;1.23;;;10.70;99.90;;;;;;5113442;27;20264;-58
2023/09/01 00:57:02;;;;;;;2.70;1.45;;;10.70;99.90;;;;;;5124814;27;20146;-58
2023/09/01 00:59:28;;;;;;;1.00;1.00;;;10.70;99.90;;;;;;5128737;27;20047;-63
2023/09/01 01:01:55;;;;;;;5.07;2.33;;;10.60;99.90;;;;;;5130775;27;20051;-59
2023/09/01 01:04:22;;;;;;;2.05;1.35;;;10.60;99.90;;;;;;5125083;27;20139;-58
2023/09/01 01:07:10;;;;;;;2.45;1.33;;;10.50;99.90;;;;;;5132208;27;20050;-58
2023/09/01 01:09:40;;;;;;;1.80;1.13;;;10.50;99.90;;;;;;5100298;27;20056;-58
2023/09/01 01:12:10;;;;;;;3.38;1.48;;;10.40;99.90;;;;;;5111428;27;20051;-59
2023/09/01 01:14:44;;;;;;;3.78;1.63;;;10.40;99.90;;;;;;5123636;27;20058;-59
2023/09/01 01:17:12;;;;;;;2.13;1.63;;;10.30;99.90;;;;;;5132268;27;20059;-60
2023/09/01 01:19:54;;;;;;;1.83;1.00;;;10.30;99.90;;;;;;5113766;27;20381;-57
2023/09/01 01:22:48;;;;;;;1.63;1.33;;;10.30;99.90;;;;;;5131679;27;20055;-56
2023/09/01 01:25:14;;;;;;;2.80;1.35;;;10.30;99.90;;;;;;5131257;27;20492;-61
2023/09/01 01:27:42;;;;;;;5.45;1.70;;;10.30;99.90;;;;;;5138013;27;20399;-57
2023/09/01 01:30:14;;;;;;;3.83;1.13;;;10.30;99.90;;;;;;5132517;27;20057;-60
2023/09/01 01:32:44;;;;;;;2.42;1.08;;;10.30;99.90;;;;;;5114355;27;20065;-58
2023/09/01 01:35:31;;;;;;;4.30;2.20;;;10.20;99.90;;;;;;5133157;27;20389;-56
2023/09/01 01:38:04;;;;;;;2.38;1.30;;;10.10;99.90;;;;;;5128723;27;20059;-62
2023/09/01 01:40:31;;;;;;;2.15;1.50;;;10.20;99.90;;;;;;5113957;27;20419;-58
2023/09/01 01:43:01;;;;;;;3.58;1.30;;;10.10;99.90;;;;;;5112054;27;20043;-57
2023/09/01 01:45:29;;;;;;;1.33;1.13;;;10.10;99.90;;;;;;5131603;27;20073;-63
2023/09/01 01:47:55;;;;;;;1.98;1.10;;;10.10;99.90;;;;;;5135407;27;20066;-62
2023/09/01 01:50:20;;;;;;;1.13;1.02;;;10.00;99.90;;;;;;5108780;27;20435;-61
2023/09/01 01:52:46;;;;;;;1.40;1.00;;;10.00;99.90;;;;;;5134346;27;20058;-63
2023/09/01 01:55:12;;;;;;;1.95;1.17;;;10.00;99.90;;;;;;5109782;27;20108;-57
2023/09/01 01:57:37;;;;;;;2.10;1.23;;;10.00;99.90;;;;;;5132208;27;20058;-58
2023/09/01 02:00:11;;;;;;;2.97;1.42;;;10.00;99.90;;;;;;5132843;27;20578;-57
2023/09/01 02:02:32;;;;;;;2.45;1.20;;;9.90;99.90;;;;;;5130275;27;20100;-57
2023/09/01 02:04:57;;;;;;;2.17;1.35;;;9.90;99.90;;;;;;5131922;27;20753;-58
2023/09/01 02:07:23;;;;;;;1.35;1.25;;;9.80;99.90;;;;;;5126058;27;20560;-58
2023/09/01 02:09:49;;;;;;;2.30;1.10;;;9.90;99.90;;;;;;5094402;27;1099841;-58
2023/09/01 02:12:15;;;;;;;1.30;1.20;;;9.90;99.90;;;;;;5110692;27;20564;-57
2023/09/01 02:14:40;;;;;;;1.40;1.08;;;9.90;99.90;;;;;;5132499;27;20054;-59
2023/09/01 02:17:06;;;;;;;6.13;1.85;;;9.80;99.90;;;;;;5130049;27;20082;-58
2023/09/01 02:19:32;;;;;;;5.72;1.10;;;9.80;99.90;;;;;;5097566;27;20731;-58
2023/09/01 02:21:58;;;;;;;0.80;0.75;;;9.70;99.90;;;;;;5106333;28;20051;-59
2023/09/01 02:24:23;;;;;;;1.85;0.65;;;9.70;99.90;;;;;;5122642;27;20055;-57
2023/09/01 02:26:49;;;;;;;1.20;0.85;;;9.70;99.90;;;;;;5127570;27;20411;-58
2023/09/01 02:29:15;;;;;;;3.88;1.25;;;9.60;99.90;;;;;;5100353;27;20052;-57
2023/09/01 02:31:40;;;;;;;3.13;1.08;;;9.60;99.90;;;;;;5132432;27;20504;-57
2023/09/01 02:34:06;;;;;;;1.45;1.10;;;9.60;99.90;;;;;;5130284;27;20043;-57
2023/09/01 02:36:33;;;;;;;2.15;1.30;;;9.50;99.90;;;;;;5131870;27;20096;-57
2023/09/01 02:39:00;;;;;;;8.57;1.75;;;9.50;99.90;;;;;;5131232;27;20062;-58
2023/09/01 02:41:26;;;;;;;3.00;1.50;;;9.40;99.90;;;;;;5109863;27;20500;-57
2023/09/01 02:43:53;;;;;;;5.22;1.63;;;9.30;99.90;;;;;;5133669;27;20408;-57
2023/09/01 02:46:20;;;;;;;3.38;1.75;;;9.30;99.90;;;;;;5127241;27;20413;-58
2023/09/01 02:48:46;;;;;;;2.42;1.40;;;9.20;99.90;;;;;;5132599;27;20250;-59
2023/09/01 02:51:11;;;;;;;2.65;1.83;;;9.20;99.90;;;;;;5128820;27;20055;-57
2023/09/01 02:53:38;;;;;;;1.52;1.42;;;9.20;99.90;;;;;;5129067;27;20046;-58
2023/09/01 02:56:04;;;;;;;2.15;1.30;;;9.30;99.90;;;;;;5111983;27;20082;-58
2023/09/01 02:58:30;;;;;;;2.63;1.13;;;9.20;99.90;;;;;;5107045;27;20063;-58
2023/09/01 03:00:56;;;;;;;3.03;1.58;;;9.10;99.90;;;;;;5134836;27;20050;-58
2023/09/01 03:03:23;;;;;;;3.15;1.92;;;9.10;99.90;;;;;;5127066;27;20408;-59
2023/09/01 03:05:50;;;;;;;2.95;1.92;;;9.10;99.90;;;;;;5133510;27;20078;-58
2023/09/01 03:08:17;;;;;;;2.83;2.17;;;9.10;99.90;;;;;;5129026;27;20054;-57
2023/09/01 03:10:43;;;;;;;4.78;1.83;;;9.00;99.90;;;;;;5129753;27;20053;-57
2023/09/01 03:13:11;;;;;;;4.90;2.47;;;9.00;99.90;;;;;;5134292;27;20058;-57
2023/09/01 03:15:39;;;;;;;3.00;1.83;;;9.00;99.90;;;;;;5106556;27;20070;-58
2023/09/01 03:18:06;;;;;;;2.83;1.70;;;9.00;99.90;;;;;;5131556;27;20055;-57
2023/09/01 03:20:32;;;;;;;2.90;1.98;;;9.00;99.90;;;;;;5127104;27;20519;-58
2023/09/01 03:22:57;;;;;;;2.72;1.80;;;9.00;99.90;;;;;;5129921;27;20047;-57
2023/09/01 03:25:24;;;;;;;2.28;1.90;;;9.00;99.90;;;;;;5129298;27;20051;-57
2023/09/01 03:27:50;;;;;;;2.85;1.85;;;9.00;99.90;;;;;;5130853;27;20055;-58
2023/09/01 03:30:15;;;;;;;3.05;1.60;;;8.90;99.90;;;;;;5130490;27;20175;-56
2023/09/01 03:32:41;;;;;;;3.65;1.95;;;9.00;99.90;;;;;;5109459;27;20130;-58
2023/09/01 03:35:11;;;;;;;6.93;2.78;;;9.00;99.90;;;;;;5093818;27;20051;-57
2023/09/01 03:37:37;;;;;;;6.45;2.50;;;8.90;99.90;;;;;;5130260;27;20054;-58
2023/09/01 03:42:36;;;;;;;4.18;1.90;;;8.90;99.90;;;;;;5124878;27;20057;-59
2023/09/01 03:45:03;;;;;;;2.30;1.83;;;9.00;99.90;;;;;;5126208;27;20043;-58
2023/09/01 03:47:28;;;;;;;2.38;1.50;;;9.00;99.90;;;;;;5130563;27;20047;-58
2023/09/01 03:49:54;;;;;;;3.67;2.58;;;8.90;99.90;;;;;;5128601;27;20693;-58
2023/09/01 03:52:20;;;;;;;2.10;1.80;;;8.90;99.90;;;;;;5132880;27;20081;-58
2023/09/01 03:54:45;;;;;;;4.97;2.15;;;8.90;99.90;;;;;;5131039;27;20485;-58
2023/09/01 03:57:11;;;;;;;2.08;1.52;;;9.00;99.90;;;;;;5112809;27;20066;-56
2023/09/01 03:59:37;;;;;;;5.40;1.80;;;9.00;99.90;;;;;;5130759;27;20209;-59
2023/09/01 04:02:04;;;;;;;3.67;2.55;;;9.00;99.90;;;;;;5129339;27;20550;-59
2023/09/01 04:04:30;;;;;;;2.53;1.70;;;9.00;99.90;;;;;;5129904;27;20055;-59
2023/09/01 04:06:56;;;;;;;2.83;1.23;;;9.00;99.90;;;;;;5126582;27;20071;-59
2023/09/01 04:09:22;;;;;;;3.63;1.40;;;9.00;99.90;;;;;;5130829;27;20079;-59
2023/09/01 04:11:47;;;;;;;3.95;1.52;;;8.90;99.90;;;;;;5127369;27;20051;-59
2023/09/01 04:14:13;;;;;;;2.22;1.50;;;8.90;99.90;;;;;;5127922;27;20065;-57
2023/09/01 04:16:39;;;;;;;2.15;1.63;;;8.90;99.90;;;;;;5125549;27;20047;-58
2023/09/01 04:19:05;;;;;;;1.52;1.40;;;8.80;99.90;;;;;;5121825;27;20412;-57
2023/09/01 04:21:30;;;;;;;1.20;1.10;;;8.80;99.90;;;;;;5129606;27;20042;-57
2023/09/01 04:23:56;;;;;;;2.33;0.90;;;9.00;99.90;;;;;;5124755;27;20055;-58
2023/09/01 04:26:22;;;;;;;1.30;1.13;;;8.70;99.90;;;;;;5128452;27;20484;-57
2023/09/01 04:28:48;;;;;;;1.30;0.93;;;8.60;99.90;;;;;;5126962;27;20050;-58
2023/09/01 04:31:24;;;;;;;0.93;0.93;;;8.60;99.90;;;;;;5130668;27;20350;-57
2023/09/01 04:33:50;;;;;;;3.83;1.30;;;8.60;99.90;;;;;;5126136;27;20136;-58
2023/09/01 04:36:16;;;;;;;1.40;1.30;;;8.60;99.90;;;;;;5131291;27;20071;-57
2023/09/01 04:38:42;;;;;;;2.00;1.15;;;8.70;99.90;;;;;;5127067;27;20063;-58
2023/09/01 04:41:11;;;;;;;9.75;2.55;;;8.70;99.90;;;;;;5127896;27;20051;-56
2023/09/01 04:43:37;;;;;;;2.85;1.08;;;8.70;99.90;;;;;;5127354;27;20133;-57
2023/09/01 04:46:03;;;;;;;2.33;1.90;;;8.70;99.90;;;;;;5126022;27;20088;-57
2023/09/01 04:48:30;;;;;;;1.67;1.13;;;8.70;99.90;;;;;;5115011;27;20477;-57
2023/09/01 04:50:56;;;;;;;2.60;1.33;;;8.80;99.90;;;;;;5129531;27;20059;-57
2023/09/01 04:53:21;;;;;;;2.88;1.50;;;8.80;99.90;;;;;;5129876;27;20059;-57
2023/09/01 04:55:48;;;;;;;2.28;1.00;;;8.80;99.90;;;;;;5131837;27;20055;-57
2023/09/01 04:58:14;;;;;;;2.97;1.38;;;8.70;99.90;;;;;;5136015;27;20051;-57
2023/09/01 05:00:39;;;;;;;2.13;1.70;;;8.80;99.90;;;;;;5135097;27;20530;-57
2023/09/01 05:03:05;;;;;;;2.13;1.50;;;8.80;99.90;;;;;;5114418;27;20095;-57
2023/09/01 05:05:31;;;;;;;1.55;1.40;;;8.80;99.90;;;;;;5133471;27;20435;-57
2023/09/01 05:07:56;;;;;;;1.90;1.42;;;8.80;99.90;;;;;;5130370;27;20075;-57
2023/09/01 05:10:22;;;;;;;1.70;1.33;;;8.90;99.90;;;;;;5116143;27;20064;-56
2023/09/01 05:12:48;;;;;;;2.97;1.35;;;8.90;99.90;;;;;;5131945;27;20051;-58
2023/09/01 05:15:14;;;;;;;1.48;1.38;;;8.90;99.90;;;;;;5112355;27;20051;-58
2023/09/01 05:17:39;;;;;;;2.85;1.80;;;8.90;99.90;;;;;;5125701;27;20580;-58
2023/09/01 05:20:07;;;;;;;1.45;1.33;;;8.90;99.90;;;;;;5129642;27;20059;-57
2023/09/01 05:22:36;;;;;;;1.10;1.00;;;8.90;99.90;;;;;;5135088;27;20703;-57
2023/09/01 05:25:02;;;;;;;1.27;1.00;;;8.90;99.90;;;;;;5094591;27;20043;-57
2023/09/01 05:27:28;;;;;;;1.85;1.00;;;9.00;99.90;;;;;;5132027;27;20058;-57
2023/09/01 05:29:54;;;;;;;1.30;1.20;;;9.10;99.90;;;;;;5132793;27;20059;-57
2023/09/01 05:32:21;;;;;;;2.20;1.38;;;9.20;99.90;;;;;;5128437;27;20107;-57
2023/09/01 05:34:47;;;;;;;3.35;1.25;;;9.20;99.90;;;;;;5134793;27;20136;-57
2023/09/01 05:37:13;;;;;;;1.80;1.60;;;9.30;99.90;;;;;;5129147;27;20047;-57
2023/09/01 05:39:40;;;;;;;1.92;1.40;;;9.50;99.90;;;;;;5132850;27;20062;-57
2023/09/01 05:44:32;;;;;;;1.40;1.17;;;9.60;99.90;;;;;;5131307;27;20096;-57
2023/09/01 05:46:58;;;;;;;4.10;1.33;;;9.70;99.90;;;;;;5131572;27;20071;-57
2023/09/01 05:49:24;;;;;;;1.25;1.10;;;9.80;99.90;;;;;;5127471;27;20047;-57
2023/09/01 05:51:50;;;;;;;1.92;1.20;;;10.10;99.90;;;;;;5134084;27;20087;-57
2023/09/01 05:54:18;;;;;;;2.13;1.30;;;10.20;99.90;;;;;;5109824;27;20047;-56
2023/09/01 05:56:43;;;;;;;1.42;1.25;;;10.40;99.90;;;;;;5138498;27;20529;-63
2023/09/01 05:59:10;;;;;;;1.50;1.40;;;10.50;99.90;;;;;;5131609;27;20043;-63
2023/09/01 06:01:36;;;;;;;1.48;1.38;;;10.70;99.90;;;;;;5128291;27;20094;-62
2023/09/01 06:04:06;;;;;;;3.22;2.17;;;10.80;99.90;;;;;;5136153;27;20081;-63
2023/09/01 06:06:32;;;;;;;3.22;1.65;;;11.00;99.90;;;;;;5126173;27;20464;-58
2023/09/01 06:08:59;;;;;;;3.72;2.53;;;11.20;99.90;;;;;;5133169;27;20097;-57
2023/09/01 06:11:25;;;;;;;4.63;2.40;;;11.30;99.90;;;;;;5076492;27;20392;-57
2023/09/01 06:13:51;;;;;;;3.00;1.85;;;11.30;99.90;;;;;;5130212;27;20526;-57
2023/09/01 06:16:17;;;;;;;2.78;2.03;;;11.50;99.90;;;;;;5128805;27;20047;-57
2023/09/01 06:18:43;;;;;;;2.17;1.60;;;11.70;99.90;;;;;;5130942;27;20459;-58
2023/09/01 06:21:15;;;;;;;1.95;1.50;;;11.90;99.90;;;;;;5122921;27;20108;-57
2023/09/01 06:23:44;;;;;;;4.40;1.60;;;12.00;99.90;;;;;;5134428;27;20140;-58
2023/09/01 06:28:51;;;;;;;2.38;1.50;;;12.00;99.90;;;;;;5103979;27;20854;-57
2023/09/01 06:31:17;;;;;;;5.35;1.83;;;12.30;99.90;;;;;;5105244;28;20044;-57
2023/09/01 06:33:44;;;;;;;3.10;1.90;;;12.50;99.90;;;;;;5098132;28;20094;-57
2023/09/01 06:36:12;;;;;;;2.60;1.70;;;12.70;99.90;;;;;;5091906;28;20051;-57
2023/09/01 06:38:39;;;;;;;2.58;2.13;;;12.80;99.90;;;;;;5083538;28;20088;-57
2023/09/01 06:41:04;;;;;;;2.58;2.05;;;13.10;99.90;;;;;;5104071;28;20140;-57
2023/09/01 06:43:30;;;;;;;2.58;1.70;;;13.40;99.90;;;;;;5068493;28;20666;-57
2023/09/01 06:45:57;;;;;;;3.25;1.88;;;13.60;99.90;;;;;;5064567;28;20052;-57
2023/09/01 06:48:23;;;;;;;2.28;1.60;;;14.00;99.90;;;;;;5063162;28;20052;-56
2023/09/01 06:50:49;;;;;;;2.33;2.13;;;14.30;99.90;;;;;;5111098;28;20122;-57
2023/09/01 06:53:14;;;;;;;3.15;1.77;;;14.50;99.90;;;;;;5112905;28;20062;-57
2023/09/01 06:55:40;;;;;;;5.57;1.48;;;14.60;99.90;;;;;;5110291;28;20067;-57
2023/09/01 06:58:06;;;;;;;4.57;2.17;;;14.80;99.90;;;;;;5120635;27;20055;-57
2023/09/01 07:00:32;;;;;;;4.03;1.30;;;14.90;99.90;;;;;;5103133;28;20093;-56
2023/09/01 07:02:58;;;;;;;4.47;2.05;;;15.20;99.90;;;;;;5086433;28;20750;-57
2023/09/01 07:05:24;;;;;;;3.53;1.65;;;15.40;99.90;;;;;;5083653;28;20056;-56
2023/09/01 07:07:52;;;;;;;4.18;1.90;;;15.60;99.90;;;;;;5084732;28;20063;-57
2023/09/01 07:12:47;;;;;;;3.33;2.28;;;15.60;99.90;;;;;;5093647;28;21297;-57
2023/09/01 07:15:13;;;;;;;5.38;2.10;;;15.60;99.90;;;;;;5088799;28;20197;-57
2023/09/01 07:17:39;;;;;;;4.13;1.88;;;15.70;99.90;;;;;;5084376;28;20071;-57
2023/09/01 07:20:05;;;;;;;2.97;2.67;;;15.90;99.90;;;;;;5085799;28;20062;-57
2023/09/01 07:22:31;;;;;;;4.15;1.75;;;15.90;99.90;;;;;;5092283;28;20051;-57
2023/09/01 07:24:57;;;;;;;2.88;2.22;;;16.20;99.90;;;;;;5085344;28;20062;-57
2023/09/01 07:27:22;;;;;;;4.75;2.45;;;16.40;99.90;;;;;;5091327;28;20048;-56
2023/09/01 07:29:48;;;;;;;3.75;2.40;;;16.70;99.90;;;;;;5087665;28;20056;-57
2023/09/01 07:32:17;;;;;;;6.60;2.40;;;17.00;99.90;;;;;;5090991;28;20584;-57
2023/09/01 07:34:46;;;;;;;4.43;2.30;;;17.10;99.90;;;;;;5084800;28;20497;-57
2023/09/01 07:37:12;;;;;;;1.73;1.48;;;17.30;99.90;;;;;;5090389;28;20055;-58
2023/09/01 07:39:38;;;;;;;4.78;2.05;;;17.60;99.90;;;;;;5075170;28;20469;-58
2023/09/01 07:42:05;;;;;;;6.43;2.08;;;17.80;99.90;;;;;;5070845;28;20167;-58
2023/09/01 07:44:31;;;;;;;3.22;1.77;;;17.80;99.90;;;;;;5070376;28;20055;-57
2023/09/01 07:46:57;;;;;;;3.70;2.25;;;17.90;99.90;;;;;;5083132;28;20044;-58
2023/09/01 07:49:23;;;;;;;4.32;2.28;;;17.90;99.90;;;;;;5076338;28;20468;-57
2023/09/01 07:51:48;;;;;;;2.13;1.90;;;18.10;99.90;;;;;;5082073;28;20095;-57
2023/09/01 07:54:14;;;;;;;4.13;2.40;;;18.10;99.90;;;;;;5071588;28;20745;-57
2023/09/01 07:56:40;;;;;;;4.80;2.00;;;18.10;99.90;;;;;;5070796;28;20488;-62
2023/09/01 07:59:06;;;;;;;2.45;1.98;;;18.10;99.90;;;;;;5070755;28;20052;-62
2023/09/01 08:01:31;;;;;;;4.82;2.20;;;18.10;99.90;;;;;;5069826;28;20066;-60
2023/09/01 08:04:00;;;;;;;4.50;1.83;;;18.20;99.90;;;;;;5078677;28;20056;-58
2023/09/01 08:06:29;;;;;;;3.00;1.92;;;18.10;99.90;;;;;;5075794;28;20091;-57
2023/09/01 08:08:56;;;;;;;3.45;2.03;;;18.30;99.90;;;;;;5073696;28;20711;-57
2023/09/01 08:11:22;;;;;;;3.92;2.30;;;18.30;99.90;;;;;;5073792;28;20502;-58
2023/09/01 08:13:48;;;;;;;3.05;2.05;;;18.50;99.90;;;;;;5078797;28;20056;-58
2023/09/01 08:16:17;;;;;;;3.63;1.98;;;18.50;99.90;;;;;;5071983;28;20109;-58
2023/09/01 08:18:43;;;;;;;3.60;1.67;;;18.60;99.90;;;;;;5078900;27;20186;-57
2023/09/01 08:21:09;;;;;;;4.18;2.15;;;18.90;99.90;;;;;;5075684;28;20169;-58
2023/09/01 08:23:34;;;;;;;5.15;2.50;;;19.10;99.90;;;;;;5069931;28;20125;-57
2023/09/01 08:26:04;;;;;;;2.72;1.98;;;19.30;99.90;;;;;;5072101;28;20514;-58
2023/09/01 08:28:31;;;;;;;2.65;1.65;;;19.50;99.90;;;;;;5070456;28;20052;-62
2023/09/01 08:31:01;;;;;;;5.38;2.10;;;19.70;99.90;;;;;;5077667;28;20039;-61
2023/09/01 08:33:27;;;;;;;6.00;2.20;;;20.10;99.90;;;;;;5068326;28;20052;-60
2023/09/01 08:35:53;;;;;;;3.95;2.05;;;20.40;99.90;;;;;;5071147;28;20105;-57
2023/09/01 08:40:48;;;;;;;3.90;2.30;;;20.40;99.90;;;;;;5084801;28;21267;-65
2023/09/01 08:43:15;;;;;;;2.45;1.60;;;20.90;99.90;;;;;;5076734;28;20386;-62
2023/09/01 08:45:41;;;;;;;3.70;1.60;;;21.00;99.90;;;;;;5078356;28;20490;-64
2023/09/01 08:48:08;;;;;;;5.05;2.08;;;21.10;99.90;;;;;;5076699;28;20147;-66
2023/09/01 08:50:34;;;;;;;3.58;1.55;;;21.50;99.90;;;;;;5075051;28;20052;-63
2023/09/01 08:53:03;;;;;;;3.33;1.73;;;21.60;99.90;;;;;;5080099;28;20568;-62
2023/09/01 08:55:30;;;;;;;2.25;0.82;;;21.60;99.90;;;;;;5075398;28;20048;-63
2023/09/01 08:57:55;;;;;;;4.40;1.20;;;21.70;99.90;;;;;;5075726;28;20091;-62
2023/09/01 09:00:22;;;;;;;3.35;1.20;;;21.60;99.90;;;;;;5071210;28;20468;-65
2023/09/01 09:02:48;;;;;;;3.20;0.70;;;21.40;99.90;;;;;;5080036;28;20095;-66
2023/09/01 09:05:15;;;;;;;3.80;1.13;;;21.70;99.90;;;;;;5074885;28;20174;-67
2023/09/01 09:07:41;;;;;;;1.98;1.10;;;21.80;99.90;;;;;;5072194;28;20091;-57
2023/09/01 09:10:08;;;;;;;2.83;1.02;;;21.80;99.90;;;;;;5072295;28;20477;-58
2023/09/01 09:12:39;;;;;;;2.55;1.23;;;21.80;99.90;;;;;;5067753;28;20087;-57
2023/09/01 09:15:06;;;;;;;3.80;1.30;;;21.70;99.90;;;;;;5069688;28;20060;-58
2023/09/01 09:17:58;;;;;;;4.22;1.45;;;21.60;99.90;;;;;;5069739;28;20442;-62
2023/09/01 09:20:36;;;;;;;2.42;0.82;;;21.50;99.90;;;;;;5069399;28;20062;-57
2023/09/01 09:23:02;;;;;;;5.72;1.33;;;21.50;99.90;;;;;;5072097;28;20605;-57
2023/09/01 09:25:33;;;;;;;1.20;0.93;;;21.60;99.90;;;;;;5073409;28;20067;-57
2023/09/01 09:28:01;;;;;;;4.50;1.40;;;21.60;99.90;;;;;;5072752;28;20048;-57
2023/09/01 09:30:27;;;;;;;5.13;1.40;;;21.40;99.90;;;;;;5077675;28;20043;-57
2023/09/01 09:33:03;;;;;;;3.78;1.23;;;21.50;99.90;;;;;;5078072;28;20091;-62
2023/09/01 09:35:29;;;;;;;3.42;0.90;;;21.30;99.90;;;;;;5076555;28;20060;-63
2023/09/01 09:37:59;;;;;;;4.82;1.20;;;21.50;99.90;;;;;;5076960;28;20048;-58
2023/09/01 09:40:25;;;;;;;1.50;1.10;;;21.60;99.90;;;;;;5078566;28;20052;-56
2023/09/01 09:42:51;;;;;;;2.33;1.20;;;21.30;99.90;;;;;;5075013;28;20528;-57
2023/09/01 09:45:23;;;;;;;4.55;1.73;;;21.40;99.90;;;;;;5072277;28;20063;-57
2023/09/01 09:47:50;;;;;;;2.78;1.42;;;21.50;99.90;;;;;;5107544;27;20645;-57
2023/09/01 09:52:49;;;;;;;7.32;1.63;;;21.70;99.90;;;;;;5101335;27;20070;-58
2023/09/01 09:55:22;;;;;;;4.53;1.70;;;21.80;99.90;;;;;;5116357;27;20059;-57
2023/09/01 09:57:49;;;;;;;1.67;1.10;;;21.60;99.90;;;;;;5107528;27;20500;-57
2023/09/01 10:00:16;;;;;;;2.65;1.13;;;21.40;99.90;;;;;;5118050;27;20082;-57
2023/09/01 10:03:01;;;;;;;3.03;1.13;;;21.40;99.90;;;;;;5120453;27;20058;-57
2023/09/01 10:05:31;;;;;;;1.75;0.82;;;21.30;99.90;;;;;;5115366;27;20150;-57
2023/09/01 10:08:00;;;;;;;4.18;1.40;;;21.30;99.90;;;;;;5121455;27;20047;-57
2023/09/01 10:10:26;;;;;;;1.08;0.50;;;21.30;99.90;;;;;;5104631;27;20131;-57
2023/09/01 10:12:53;;;;;;;3.10;1.30;;;21.40;99.90;;;;;;5116726;27;20505;-57
2023/09/01 10:15:22;;;;;;;2.22;1.10;;;21.20;99.90;;;;;;5115703;27;20094;-58
2023/09/01 10:17:48;;;;;;;1.65;0.77;;;21.20;99.90;;;;;;5104355;27;20051;-58
2023/09/01 10:20:14;;;;;;;2.30;1.08;;;21.30;99.90;;;;;;5117930;27;20047;-58
2023/09/01 10:22:40;;;;;;;2.85;1.25;;;21.20;99.90;;;;;;5116624;27;20119;-57
2023/09/01 10:28:04;;;;;;;2.60;1.13;;;21.40;99.90;;;;;;5104829;27;20636;-58
2023/09/01 10:30:32;;;;;;;4.07;1.60;;;21.60;99.90;;;;;;5123726;27;20119;-58
2023/09/01 10:33:22;;;;;;;2.85;1.42;;;21.60;99.90;;;;;;5131248;27;20078;-58
2023/09/01 10:35:57;;;;;;;4.47;1.60;;;21.70;99.90;;;;;;5114603;27;20096;-57
2023/09/01 10:38:35;;;;;;;4.55;0.75;;;21.50;99.90;;;;;;5110638;27;20064;-57
2023/09/01 10:41:01;;;;;;;4.43;1.05;;;21.70;99.90;;;;;;5103262;28;20075;-57
2023/09/01 10:46:16;;;;;;;0.98;0.77;;;22.30;99.90;;;;;;5080253;28;1154589;-57
2023/09/01 10:48:53;;;;;;;3.60;0.80;;;22.60;99.90;;;;;;5110768;27;20043;-57
2023/09/01 10:51:30;;;;;;;3.55;1.02;;;23.00;99.90;;;;;;5117434;27;20074;-57
2023/09/01 10:54:02;;;;;;;1.30;0.80;;;23.20;99.90;;;;;;5103277;28;20052;-57
2023/09/01 10:56:29;;;;;;;2.72;1.35;;;23.50;99.90;;;;;;5128758;27;20051;-57
2023/09/01 10:58:57;;;;;;;1.48;0.90;;;23.70;99.90;;;;;;5127867;27;20051;-58
2023/09/01 11:01:33;;;;;;;1.60;0.70;;;23.60;99.90;;;;;;5086190;27;20060;-57
2023/09/01 11:04:13;;;;;;;2.95;0.70;;;24.10;99.90;;;;;;5088925;28;20055;-64
2023/09/01 11:06:58;;;;;;;1.77;1.02;;;24.00;99.90;;;;;;5104764;27;20097;-60
2023/09/01 11:09:33;;;;;;;2.35;1.23;;;24.70;99.90;;;;;;5121309;27;20085;-57
2023/09/01 11:12:06;;;;;;;2.03;1.20;;;24.60;99.90;;;;;;5095821;28;20044;-57
2023/09/01 11:14:32;;;;;;;2.47;1.10;;;25.00;99.90;;;;;;5119137;27;20165;-57
2023/09/01 11:17:05;;;;;;;5.68;1.73;;;25.20;99.90;;;;;;5129206;27;20508;-58
2023/09/01 11:19:33;;;;;;;1.63;0.88;;;25.20;99.90;;;;;;5116746;27;20047;-57
2023/09/01 11:21:59;;;;;;;2.58;1.08;;;25.20;99.90;;;;;;5102529;27;20047;-58
2023/09/01 11:24:25;;;;;;;3.05;1.00;;;25.60;99.90;;;;;;5118493;27;20056;-58
2023/09/01 11:26:51;;;;;;;3.97;1.17;;;27.10;99.90;;;;;;5120793;27;21224;-58
2023/09/01 11:32:22;;;;;;;1.85;1.00;;;30.60;99.90;;;;;;5107086;27;20046;-58
2023/09/01 11:34:49;;;;;;;1.92;0.85;;;32.00;99.90;;;;;;5110545;27;20050;-61
2023/09/01 11:37:15;;;;;;;2.88;0.95;;;32.60;99.90;;;;;;5098585;27;20066;-59
2023/09/01 11:39:41;;;;;;;5.50;1.30;;;33.20;99.00;;;;;;5104512;27;20062;-60
2023/09/01 11:42:07;;;;;;;3.80;1.42;;;33.60;99.00;;;;;;5101740;27;20058;-58
2023/09/01 11:44:33;;;;;;;3.17;1.80;;;32.60;98.90;;;;;;5112417;27;20054;-59
2023/09/01 11:46:59;;;;;;;7.72;2.10;;;32.90;97.30;;;;;;5123984;27;20050;-62
2023/09/01 11:49:24;;;;;;;3.03;1.98;;;32.70;98.20;;;;;;5124007;27;20078;-67
2023/09/01 11:51:50;;;;;;;6.15;2.60;;;33.70;97.30;;;;;;5110412;27;20063;-63
2023/09/01 11:54:16;;;;;;;4.47;2.83;;;34.30;96.10;;;;;;5103552;27;20066;-62
2023/09/01 11:56:42;;;;;;;5.10;2.72;;;34.50;96.40;;;;;;5105776;27;21206;-64
2023/09/01 11:59:07;;;;;;;4.70;2.45;;;35.20;95.30;;;;;;5102094;27;20126;-58
2023/09/01 12:01:41;;;;;;;4.30;2.35;;;35.10;94.90;;;;;;5114324;27;20202;-60
2023/09/01 12:04:08;;;;;;;;;;;34.60;94.00;;;;;;5109186;27;20058;-62
2023/09/01 12:06:44;;;;;;;7.05;1.98;;;34.80;94.40;;;;;;5108487;27;19968;-58
2023/09/01 12:09:14;;;;;;;4.32;2.15;;;33.90;94.90;;;;;;5115391;27;20068;-58
2023/09/01 12:11:53;;;;;;;5.05;2.60;;;33.70;96.00;;;;;;5121223;27;20106;-58
2023/09/01 12:14:25;;;;;;;5.20;2.10;;;34.40;94.30;;;;;;5125335;27;20060;-58
2023/09/01 12:16:53;;;;;;;2.97;1.95;;;34.60;94.40;;;;;;5107417;27;20509;-58
2023/09/01 12:19:28;;;;;;;3.80;1.88;;;34.50;94.80;;;;;;5111257;27;20093;-59
2023/09/01 12:21:57;;;;;;;6.25;2.55;;;34.50;93.10;;;;;;5113934;27;20147;-58
2023/09/01 12:24:23;;;;;;;6.95;2.53;;;34.30;93.40;;;;;;5096298;27;20778;-62
2023/09/01 12:26:49;;;;;;;5.97;3.40;;;34.20;94.10;;;;;;5119798;27;20493;-58
2023/09/01 12:29:14;;;;;;;6.22;2.85;;;31.20;94.60;;;;;;5102413;27;20082;-62
2023/09/01 12:31:42;;;;;;;5.22;2.20;;;31.30;95.60;;;;;;5119733;27;20079;-61
2023/09/01 12:34:08;;;;;;;6.93;3.08;;;30.30;96.40;;;;;;5081706;28;20508;-63
2023/09/01 12:36:33;;;;;;;3.30;1.88;;;30.30;97.50;;;;;;5104611;27;20056;-58
2023/09/01 12:38:59;;;;;;;4.60;2.47;;;30.10;97.90;;;;;;5100598;27;20049;-57
2023/09/01 12:41:25;;;;;;;5.18;2.03;;;29.30;97.80;;;;;;5117334;27;20763;-58
2023/09/01 12:43:51;;;;;;;5.93;2.38;;;29.20;98.10;;;;;;5116747;27;20053;-58
2023/09/01 12:46:16;;;;;;;4.65;2.47;;;29.30;98.20;;;;;;5110617;27;20046;-59
2023/09/01 12:48:42;;;;;;;3.97;2.30;;;28.30;98.60;;;;;;5106733;27;21738;-57
2023/09/01 12:51:08;;;;;;;7.10;2.72;;;27.50;99.80;;;;;;5113301;27;20104;-58
2023/09/01 12:53:34;;;;;;;5.38;2.58;;;27.10;99.90;;;;;;5075112;27;20055;-59
2023/09/01 12:56:00;;;;;;;4.32;2.38;;;26.80;99.90;;;;;;5085638;27;20068;-58
2023/09/01 12:58:28;;;;;;;3.53;1.88;;;26.70;99.90;;;;;;5100278;27;20575;-58
2023/09/01 13:01:03;;;;;;;2.92;2.15;;;26.60;99.90;;;;;;5106793;27;20074;-58
2023/09/01 13:03:30;;;;;;;5.32;2.67;;;26.90;99.90;;;;;;5073856;27;20135;-58
2023/09/01 13:05:55;;;;;;;6.63;2.80;;;26.30;99.90;;;;;;5111064;27;20551;-58
2023/09/01 13:08:23;;;;;;;4.03;2.22;;;25.90;99.90;;;;;;5118070;27;20051;-58
2023/09/01 13:10:48;;;;;;;5.50;3.13;;;25.90;99.90;;;;;;5110199;27;20062;-58
2023/09/01 13:13:16;;;;;;;3.75;2.65;;;26.10;99.90;;;;;;5107305;27;20051;-58
2023/09/01 13:15:42;;;;;;;6.15;2.60;;;25.70;99.90;;;;;;5100366;27;20067;-58
2023/09/01 13:18:08;;;;;;;4.47;2.25;;;25.30;99.90;;;;;;5118592;27;20123;-59